LFRG/DOL METAR and TAF weather

Enter ICAO airport designator
Station Type Date Time Source
LFRG METAR 2021/03/05 06:00 UTC NOAA

LFRG 050600Z AUTO 02006KT 350V050 9999 OVC035 04/M01 Q1026 TEMPO SHRA BKN014


Station Type Date Time Source
LFRG Decoded METAR 2021/03/05 06:00 UTC NOAA

Station name not available
Mar 05, 2021 - 01:00 AM EST / 2021.03.05 0600 UTC
Wind: from the NNE (020 degrees) at 7 MPH (6 KT) (direction variable):0
Visibility: greater than 7 mile(s):0
Sky conditions: overcast
Temperature: 39 F (4 C)
Dew Point: 30 F (-1 C)
Relative Humidity: 69%
Pressure (altimeter): 30.30 in. Hg (1026 hPa)
ob: LFRG 050600Z AUTO 02006KT 350V050 9999 OVC035 04/M01 Q1026 TEMPO SHRA BKN014
cycle: 6

Station Type Date Time Source
LFRG TAF 2014/12/22 18:42 UTC NOAA

TAF
AMD TAF
AMD LFRG 221837Z 2218/2221 25015KT 9999 OVC015
TEMPO 2218/2221 BKN007 PROB30
TEMPO 2218/2221 25015G25KT 4000 DZ BKN003

Example: see airport list